createdAt,value
2018-02-20T00:00:00.300Z,27.97
2018-02-20T00:02:28.624Z,26.50
2018-02-20T00:04:56.389Z,25.70
2018-02-20T00:07:23.973Z,26.33
2018-02-20T00:09:51.598Z,28.80
2018-02-20T00:12:19.127Z,27.83
2018-02-20T00:14:46.662Z,29.73
2018-02-20T00:17:15.796Z,29.60
2018-02-20T00:19:43.337Z,29.50
2018-02-20T00:22:15.578Z,29.70
2018-02-20T00:24:43.114Z,31.33
2018-02-20T00:27:11.697Z,29.27
2018-02-20T00:29:39.238Z,30.00
2018-02-20T00:32:06.827Z,28.83
2018-02-20T00:34:34.398Z,28.50
2018-02-20T00:37:01.920Z,29.87
2018-02-20T00:39:29.498Z,28.57
2018-02-20T00:41:57.342Z,27.80
2018-02-20T00:44:24.884Z,27.73
2018-02-20T00:46:52.583Z,27.50
2018-02-20T00:49:20.822Z,30.00
2018-02-20T00:51:48.396Z,30.70
2018-02-20T00:54:15.946Z,30.50
2018-02-20T00:56:44.291Z,31.77
2018-02-20T00:59:11.866Z,28.70
2018-02-20T01:01:39.465Z,29.03
2018-02-20T01:04:07.018Z,30.20
2018-02-20T01:06:34.642Z,29.63
2018-02-20T01:09:02.182Z,33.03
2018-02-20T01:11:29.947Z,31.67
2018-02-20T01:13:57.490Z,31.13
2018-02-20T01:16:25.018Z,32.07
2018-02-20T01:18:52.598Z,30.90
2018-02-20T01:21:20.239Z,30.97
2018-02-20T01:23:48.547Z,32.53
2018-02-20T01:26:16.157Z,33.40
2018-02-20T01:28:43.780Z,32.30
2018-02-20T01:31:11.315Z,32.30
2018-02-20T01:33:39.706Z,32.93
2018-02-20T01:36:07.288Z,30.00
2018-02-20T01:38:34.839Z,32.20
2018-02-20T01:41:02.393Z,31.07
2018-02-20T01:43:29.976Z,31.57
2018-02-20T01:45:57.541Z,32.93
2018-02-20T01:48:25.860Z,31.47
2018-02-20T01:51:05.454Z,33.37
2018-02-20T01:53:33.041Z,29.50
2018-02-20T01:56:00.596Z,30.27
2018-02-20T01:58:28.168Z,33.63
2018-02-20T02:00:55.867Z,32.07
2018-02-20T02:03:23.645Z,30.60
2018-02-20T02:05:51.170Z,33.87
2018-02-20T02:08:18.699Z,32.90
2018-02-20T02:10:47.759Z,31.47
2018-02-20T02:13:15.306Z,32.20
2018-02-20T02:15:43.560Z,32.60
2018-02-20T02:18:11.172Z,32.10
2018-02-20T02:20:38.775Z,31.57
2018-02-20T02:23:06.376Z,31.10
2018-02-20T02:25:34.158Z,33.27
2018-02-20T02:28:01.696Z,31.67
2018-02-20T02:30:29.280Z,32.10
2018-02-20T02:32:57.208Z,33.57
2018-02-20T02:35:24.763Z,34.23
2018-02-20T02:37:52.359Z,33.77
2018-02-20T02:40:19.951Z,32.80
2018-02-20T02:42:48.258Z,33.93
2018-02-20T02:45:15.861Z,34.50
2018-02-20T02:47:43.435Z,31.97
2018-02-20T02:50:12.066Z,33.50
2018-02-20T02:52:39.668Z,33.33
2018-02-20T02:55:07.230Z,31.73
2018-02-20T02:57:34.787Z,33.27
2018-02-20T03:00:02.508Z,33.00
2018-02-20T03:02:32.932Z,34.33
2018-02-20T03:05:00.490Z,33.30
2018-02-20T03:07:28.098Z,31.87
2018-02-20T03:09:55.706Z,35.37
2018-02-20T03:12:23.239Z,36.13
2018-02-20T03:14:50.980Z,34.10
2018-02-20T03:17:18.513Z,35.27
2018-02-20T03:19:46.183Z,33.70
2018-02-20T03:22:15.014Z,35.57
2018-02-20T03:24:42.570Z,36.10
2018-02-20T03:27:10.150Z,38.30
2018-02-20T03:29:39.218Z,36.60
2018-02-20T03:32:06.790Z,36.47
2018-02-20T03:34:34.369Z,35.20
2018-02-20T03:37:01.959Z,33.73
2018-02-20T03:39:29.543Z,33.97
2018-02-20T03:41:57.113Z,35.30
2018-02-20T03:44:25.395Z,33.30
2018-02-20T03:46:53.174Z,34.17
2018-02-20T03:49:20.755Z,34.37
2018-02-20T03:51:49.076Z,32.60
2018-02-20T03:54:16.677Z,32.57
2018-02-20T03:56:45.052Z,33.20
2018-02-20T03:59:13.417Z,32.20
2018-02-20T04:01:40.997Z,32.07
2018-02-20T04:04:09.326Z,33.40
2018-02-20T04:06:36.912Z,33.80
2018-02-20T04:09:04.532Z,34.20
2018-02-20T04:11:32.197Z,34.20
2018-02-20T04:13:59.992Z,33.50
2018-02-20T04:16:27.522Z,34.33
2018-02-20T04:18:55.068Z,34.73
2018-02-20T04:21:22.667Z,34.43
2018-02-20T04:23:50.186Z,33.20
2018-02-20T04:26:17.786Z,33.10
2018-02-20T04:28:45.312Z,34.07
2018-02-20T04:31:12.862Z,34.47
2018-02-20T04:33:40.656Z,33.30
2018-02-20T04:36:09.184Z,33.43
2018-02-20T04:38:37.680Z,32.80
2018-02-20T04:41:07.570Z,33.90
2018-02-20T04:43:35.101Z,32.50
2018-02-20T04:46:02.856Z,33.43
2018-02-20T04:48:30.407Z,33.97
2018-02-20T04:50:58.017Z,33.67
2018-02-20T04:53:25.643Z,34.13
2018-02-20T04:55:53.187Z,33.90
2018-02-20T04:58:20.762Z,34.90
2018-02-20T05:00:48.544Z,35.00
2018-02-20T05:03:16.115Z,34.40
2018-02-20T05:05:43.654Z,33.43
2018-02-20T05:08:11.500Z,35.87
2018-02-20T05:10:39.137Z,33.70
2018-02-20T05:13:06.667Z,35.37
2018-02-20T05:15:35.044Z,34.10
2018-02-20T05:18:03.371Z,35.33
2018-02-20T05:20:30.906Z,33.97
2018-02-20T05:22:59.242Z,33.50
2018-02-20T05:25:26.803Z,37.43
2018-02-20T05:27:54.364Z,33.10
2018-02-20T05:30:21.969Z,34.10
2018-02-20T05:32:50.277Z,32.77
2018-02-20T05:35:17.881Z,33.27
2018-02-20T05:37:45.454Z,31.97
2018-02-20T05:40:13.076Z,32.70
2018-02-20T05:42:40.666Z,33.43
2018-02-20T05:45:08.982Z,33.47
2018-02-20T05:47:37.995Z,30.33
2018-02-20T05:50:05.729Z,31.60
2018-02-20T05:52:33.313Z,30.20
2018-02-20T05:55:00.863Z,30.17
2018-02-20T05:57:28.531Z,29.63
2018-02-20T05:59:56.143Z,28.77
2018-02-20T06:02:24.303Z,31.57
2018-02-20T06:04:51.886Z,28.23
2018-02-20T06:07:20.102Z,29.93
2018-02-20T06:09:47.674Z,29.70
2018-02-20T06:12:16.293Z,28.10
2018-02-20T06:14:43.859Z,30.17
2018-02-20T06:17:11.407Z,29.43
2018-02-20T06:19:39.205Z,29.23
2018-02-20T06:22:07.540Z,29.13
2018-02-20T06:24:35.094Z,28.40
2018-02-20T06:27:02.676Z,28.40
2018-02-20T06:29:30.217Z,27.50
2018-02-20T06:31:57.801Z,28.60
2018-02-20T06:34:26.114Z,29.90
2018-02-20T06:36:53.773Z,28.30
2018-02-20T06:39:21.312Z,28.40
2018-02-20T06:41:49.780Z,27.50
2018-02-20T06:44:17.342Z,30.17
2018-02-20T06:46:45.033Z,29.83
2018-02-20T06:49:13.337Z,28.40
2018-02-20T06:51:40.919Z,29.10
2018-02-20T06:54:08.672Z,26.80
2018-02-20T06:56:36.229Z,27.77
2018-02-20T06:59:03.766Z,27.30
2018-02-20T07:01:31.359Z,26.50
2018-02-20T07:03:58.923Z,26.53
2018-02-20T07:06:26.481Z,28.50
2018-02-20T07:08:54.038Z,26.87
2018-02-20T07:11:21.635Z,28.40
2018-02-20T07:13:49.234Z,28.50
2018-02-20T07:16:16.797Z,26.43
2018-02-20T07:18:44.341Z,27.20
2018-02-20T07:21:11.907Z,30.13
2018-02-20T07:23:39.524Z,29.80
2018-02-20T07:26:07.142Z,29.07
2018-02-20T07:28:34.745Z,32.43
2018-02-20T07:31:02.296Z,32.43
2018-02-20T07:33:29.872Z,32.40
2018-02-20T07:35:57.434Z,32.27
2018-02-20T07:38:25.076Z,31.53
2018-02-20T07:40:52.670Z,30.87
2018-02-20T07:43:20.217Z,29.53
2018-02-20T07:45:47.810Z,28.77
2018-02-20T07:48:15.381Z,28.03
2018-02-20T07:50:42.892Z,28.30
2018-02-20T07:53:12.134Z,26.83
2018-02-20T07:55:39.731Z,28.93
2018-02-20T07:58:07.276Z,28.07
2018-02-20T08:00:34.893Z,28.87
2018-02-20T08:03:03.513Z,28.40
2018-02-20T08:05:31.119Z,29.07
2018-02-20T08:07:58.717Z,27.90
2018-02-20T08:10:26.439Z,25.63
2018-02-20T08:12:53.992Z,26.37
2018-02-20T08:15:21.565Z,26.93
2018-02-20T08:17:50.177Z,29.10
2018-02-20T08:20:17.990Z,27.43
2018-02-20T08:22:46.354Z,28.77
2018-02-20T08:25:13.878Z,28.37
2018-02-20T08:27:42.213Z,27.67
2018-02-20T08:30:09.736Z,30.87
2018-02-20T08:32:37.309Z,29.40
2018-02-20T08:35:05.013Z,29.93
2018-02-20T08:37:32.629Z,29.60
2018-02-20T08:40:00.205Z,30.27
2018-02-20T08:42:28.268Z,30.00
2018-02-20T08:44:56.361Z,29.10
2018-02-20T08:47:23.886Z,31.00
2018-02-20T08:49:51.430Z,30.63
2018-02-20T08:52:19.043Z,33.20
2018-02-20T08:54:47.392Z,31.30
2018-02-20T08:57:14.928Z,28.27
2018-02-20T08:59:43.775Z,32.23
2018-02-20T09:02:11.350Z,32.47
2018-02-20T09:04:38.951Z,30.30
2018-02-20T09:07:07.872Z,29.90
2018-02-20T09:09:35.410Z,31.33
2018-02-20T09:12:02.990Z,27.93
2018-02-20T09:14:30.579Z,30.03
2018-02-20T09:16:58.118Z,29.53
2018-02-20T09:19:25.697Z,29.17
2018-02-20T09:21:53.281Z,29.97
2018-02-20T09:24:21.620Z,31.13
2018-02-20T09:26:49.421Z,30.30
2018-02-20T09:29:17.821Z,31.60
2018-02-20T09:31:45.454Z,28.30
2018-02-20T09:34:13.628Z,29.87
2018-02-20T09:36:42.347Z,29.43
2018-02-20T09:39:09.929Z,27.60
2018-02-20T09:41:37.504Z,27.20
2018-02-20T09:44:05.107Z,27.83
2018-02-20T09:46:32.728Z,24.93
2018-02-20T09:49:00.349Z,24.33
2018-02-20T09:51:27.887Z,26.50
2018-02-20T09:53:56.545Z,23.70
2018-02-20T09:56:24.137Z,25.00
2018-02-20T09:58:51.701Z,23.77
2018-02-20T10:01:20.089Z,24.30
2018-02-20T10:06:21.943Z,22.90
2018-02-20T10:08:50.296Z,22.27
2018-02-20T10:11:17.867Z,21.93
2018-02-20T10:13:45.417Z,21.80
2018-02-20T10:16:13.153Z,23.40
2018-02-20T10:18:40.878Z,23.70
2018-02-20T10:21:08.479Z,22.03
2018-02-20T10:23:36.027Z,19.47
2018-02-20T10:26:03.569Z,21.60
2018-02-20T10:28:31.169Z,20.73
2018-02-20T10:30:58.705Z,21.60
2018-02-20T10:33:26.302Z,21.50
2018-02-20T10:35:53.907Z,20.53
2018-02-20T10:38:22.199Z,20.60
2018-02-20T10:40:49.756Z,21.50
2018-02-20T10:43:17.322Z,23.23
2018-02-20T10:45:45.124Z,23.50
2018-02-20T10:48:12.698Z,22.13
2018-02-20T10:50:40.406Z,22.40
2018-02-20T10:53:08.112Z,20.80
2018-02-20T10:55:35.656Z,20.03
2018-02-20T10:58:03.219Z,18.50
2018-02-20T11:00:30.790Z,19.53
2018-02-20T11:02:58.375Z,19.57
2018-02-20T11:05:26.775Z,21.17
2018-02-20T11:07:55.373Z,20.80
2018-02-20T11:10:23.007Z,20.13
2018-02-20T11:12:51.333Z,19.07
2018-02-20T11:15:18.894Z,20.30
2018-02-20T11:17:46.968Z,19.23
2018-02-20T11:20:14.505Z,18.50
2018-02-20T11:22:42.083Z,17.30
2018-02-20T11:25:09.782Z,18.60
2018-02-20T11:27:38.113Z,18.80
2018-02-20T11:30:05.720Z,18.07
2018-02-20T11:32:33.930Z,18.60
2018-02-20T11:35:01.556Z,18.67
2018-02-20T11:37:29.107Z,17.93
2018-02-20T11:39:56.706Z,19.27
2018-02-20T11:42:24.476Z,21.30
2018-02-20T11:44:52.847Z,22.60
2018-02-20T11:47:21.456Z,21.90
2018-02-20T11:49:49.456Z,24.80
2018-02-20T11:52:17.182Z,23.90
2018-02-20T11:54:44.778Z,26.20
2018-02-20T11:57:12.341Z,26.37
2018-02-20T11:59:40.013Z,26.63
2018-02-20T12:02:07.720Z,27.43
2018-02-20T12:04:35.286Z,27.60
2018-02-20T12:07:02.937Z,27.80
2018-02-20T12:09:30.537Z,30.90
2018-02-20T12:11:58.107Z,30.17
2018-02-20T12:14:25.889Z,27.93
2018-02-20T12:16:54.239Z,28.37
2018-02-20T12:19:21.782Z,29.80
2018-02-20T12:21:49.380Z,29.37
2018-02-20T12:24:16.994Z,30.00
2018-02-20T12:26:44.607Z,29.80
2018-02-20T12:29:12.559Z,29.13
2018-02-20T12:31:44.847Z,28.63
2018-02-20T12:34:40.554Z,27.80
2018-02-20T12:37:10.798Z,27.80
2018-02-20T12:39:38.451Z,29.30
2018-02-20T12:42:06.010Z,28.00
2018-02-20T12:44:33.886Z,26.53
2018-02-20T12:47:01.449Z,25.57
2018-02-20T12:49:28.996Z,25.83
2018-02-20T12:51:56.855Z,29.13
2018-02-20T12:54:24.431Z,27.63
2018-02-20T12:56:52.636Z,26.97
2018-02-20T12:59:20.209Z,27.47
2018-02-20T13:01:47.761Z,26.33
2018-02-20T13:04:15.523Z,25.47
2018-02-20T13:06:43.067Z,25.03
2018-02-20T13:09:10.641Z,27.10
2018-02-20T13:11:39.003Z,26.17
2018-02-20T13:14:06.524Z,26.47
2018-02-20T13:16:34.124Z,27.57
2018-02-20T13:19:02.461Z,25.87
2018-02-20T13:21:30.802Z,25.50
2018-02-20T13:23:58.732Z,28.97
2018-02-20T13:26:26.321Z,23.97
2018-02-20T13:28:53.902Z,24.37
2018-02-20T13:31:21.539Z,24.00
2018-02-20T13:33:49.136Z,25.30
2018-02-20T13:36:16.759Z,26.37
2018-02-20T13:38:44.370Z,24.50
2018-02-20T13:41:11.940Z,26.10
2018-02-20T13:43:39.501Z,24.80
2018-02-20T13:46:07.397Z,27.20
2018-02-20T13:48:37.408Z,27.30
2018-02-20T13:51:04.985Z,29.30
2018-02-20T13:53:33.335Z,27.97
2018-02-20T13:56:00.879Z,27.60
2018-02-20T13:58:28.582Z,30.40
2018-02-20T14:00:57.700Z,29.30
2018-02-20T14:03:25.906Z,28.53
2018-02-20T14:05:54.619Z,28.50
2018-02-20T14:08:22.993Z,29.10
2018-02-20T14:10:50.599Z,30.47
2018-02-20T14:13:18.743Z,28.50
2018-02-20T14:15:46.683Z,29.63
2018-02-20T14:18:14.282Z,29.97
2018-02-20T14:20:41.857Z,28.93
2018-02-20T14:23:11.538Z,29.20
2018-02-20T14:25:39.197Z,26.50
2018-02-20T14:28:06.779Z,28.77
2018-02-20T14:30:35.141Z,28.30
2018-02-20T14:33:03.099Z,28.00
2018-02-20T14:35:31.159Z,27.80
2018-02-20T14:37:58.809Z,27.00
2018-02-20T14:40:26.439Z,29.47
2018-02-20T14:42:54.891Z,27.67
2018-02-20T14:45:23.123Z,27.40
2018-02-20T14:47:50.751Z,27.87
2018-02-20T14:50:19.061Z,29.17
2018-02-20T14:52:46.720Z,29.23
2018-02-20T14:55:14.398Z,28.20
2018-02-20T14:57:42.546Z,29.77
2018-02-20T15:00:10.104Z,28.80
2018-02-20T15:02:38.925Z,29.33
2018-02-20T15:05:06.761Z,31.43
2018-02-20T15:07:34.307Z,32.03
2018-02-20T15:10:02.556Z,32.20
2018-02-20T15:12:30.570Z,32.97
2018-02-20T15:14:59.781Z,31.90
2018-02-20T15:17:27.335Z,33.13
2018-02-20T15:19:54.994Z,34.50
2018-02-20T15:22:22.753Z,39.10
2018-02-20T15:24:50.364Z,36.93
2018-02-20T15:27:18.015Z,34.80
2018-02-20T15:29:46.514Z,34.80
2018-02-20T15:32:16.714Z,35.87
2018-02-20T15:34:45.065Z,36.57
2018-02-20T15:37:13.956Z,35.60
2018-02-20T15:39:42.954Z,36.90
2018-02-20T15:42:10.940Z,38.90
2018-02-20T15:44:38.562Z,37.13
2018-02-20T15:47:06.114Z,38.37
2018-02-20T15:49:33.686Z,37.30
2018-02-20T15:52:01.593Z,38.00
2018-02-20T15:54:29.127Z,37.93
2018-02-20T15:56:56.796Z,34.50
2018-02-20T15:59:25.077Z,36.50
2018-02-20T16:01:52.635Z,35.73
2018-02-20T16:04:21.114Z,39.40
2018-02-20T16:06:48.897Z,39.80
2018-02-20T16:09:16.432Z,38.57
2018-02-20T16:11:45.251Z,42.57
2018-02-20T16:14:13.320Z,40.33
2018-02-20T16:16:40.994Z,42.90
2018-02-20T16:19:08.817Z,43.10
2018-02-20T16:21:36.490Z,42.93
2018-02-20T16:24:04.048Z,44.00
2018-02-20T16:26:32.134Z,43.30
2018-02-20T16:28:59.766Z,47.30
2018-02-20T16:31:27.315Z,42.70
2018-02-20T16:33:55.682Z,43.67
2018-02-20T16:36:25.804Z,41.63
2018-02-20T16:38:53.534Z,41.97
2018-02-20T16:41:21.123Z,45.37
2018-02-20T16:43:48.667Z,43.37
2018-02-20T16:46:16.454Z,41.40
2018-02-20T16:48:44.832Z,38.17
2018-02-20T16:51:13.530Z,41.30
2018-02-20T16:53:41.320Z,39.80
2018-02-20T16:56:09.231Z,41.27
2018-02-20T16:58:37.564Z,44.17
2018-02-20T17:01:05.852Z,42.47
2018-02-20T17:03:33.448Z,40.57
2018-02-20T17:06:01.648Z,40.60
2018-02-20T17:08:29.853Z,40.53
2018-02-20T17:10:57.658Z,45.43
2018-02-20T17:13:25.997Z,39.67
2018-02-20T17:25:33.640Z,33.50
2018-02-20T17:28:01.694Z,35.47
2018-02-20T17:30:30.031Z,39.47
2018-02-20T17:32:58.306Z,39.07
2018-02-20T17:35:25.916Z,39.67
2018-02-20T17:38:00.663Z,38.93
2018-02-20T17:40:21.917Z,39.53
2018-02-20T17:42:49.515Z,38.97
2018-02-20T17:45:17.084Z,39.30
2018-02-20T17:47:44.989Z,41.27
2018-02-20T17:50:12.690Z,39.83
2018-02-20T17:52:42.143Z,38.13
2018-02-20T17:55:09.714Z,41.30
2018-02-20T17:57:37.883Z,34.10
2018-02-20T18:00:06.460Z,35.90
2018-02-20T18:02:34.119Z,37.73
2018-02-20T18:05:01.725Z,36.90
2018-02-20T18:07:30.105Z,37.40
2018-02-20T18:09:58.213Z,32.23
2018-02-20T18:12:25.789Z,34.93
2018-02-20T18:14:53.457Z,33.43
2018-02-20T18:17:21.712Z,30.50
2018-02-20T18:19:49.299Z,32.10
2018-02-20T18:22:16.901Z,28.27
2018-02-20T18:24:44.523Z,29.30
2018-02-20T18:27:12.286Z,27.30
2018-02-20T18:29:39.869Z,30.13
2018-02-20T18:32:07.468Z,31.40
2018-02-20T18:34:35.012Z,31.00
2018-02-20T18:37:03.248Z,33.77
2018-02-20T18:39:30.992Z,35.67
2018-02-20T18:41:58.535Z,33.80
2018-02-20T18:44:26.105Z,37.00
2018-02-20T18:46:53.679Z,42.77
2018-02-20T18:49:21.315Z,36.07
2018-02-20T18:51:49.631Z,36.47
2018-02-20T18:54:17.239Z,34.20
2018-02-20T18:56:45.573Z,32.97
2018-02-20T18:59:13.235Z,37.70
2018-02-20T19:01:40.984Z,38.97
2018-02-20T19:04:08.760Z,38.83
2018-02-20T19:06:36.386Z,42.53
2018-02-20T19:09:04.272Z,42.70
2018-02-20T19:11:32.212Z,44.37
2018-02-20T19:13:59.794Z,45.13
2018-02-20T19:16:27.337Z,43.97
2018-02-20T19:18:54.917Z,44.37
2018-02-20T19:21:22.664Z,45.40
2018-02-20T19:23:50.257Z,46.10
2018-02-20T19:26:17.809Z,47.10
2018-02-20T19:28:45.459Z,48.87
2018-02-20T19:31:13.919Z,47.60
2018-02-20T19:33:41.782Z,47.67
2018-02-20T19:36:09.584Z,50.00
2018-02-20T19:38:37.151Z,47.50
2018-02-20T19:41:04.725Z,48.37
2018-02-20T19:43:33.029Z,52.93
2018-02-20T19:46:00.622Z,51.30
2018-02-20T19:48:28.199Z,50.53
2018-02-20T19:50:55.821Z,51.60
2018-02-20T19:53:24.322Z,50.97
2018-02-20T19:55:52.972Z,51.17
2018-02-20T19:58:20.512Z,51.50
2018-02-20T20:00:48.070Z,54.20
2018-02-20T20:03:15.664Z,55.47
2018-02-20T20:05:43.667Z,55.77
2018-02-20T20:08:11.835Z,56.20
2018-02-20T20:10:39.835Z,56.47
2018-02-20T20:13:07.444Z,53.93
2018-02-20T20:15:35.094Z,58.20
2018-02-20T20:18:03.711Z,54.47
2018-02-20T20:20:37.010Z,59.67
2018-02-20T20:23:01.375Z,56.50
2018-02-20T20:25:29.696Z,54.17
2018-02-20T20:27:58.064Z,58.23
2018-02-20T20:30:26.355Z,59.67
2018-02-20T20:32:54.538Z,58.73
2018-02-20T20:35:23.025Z,56.00
2018-02-20T20:37:51.073Z,61.60
2018-02-20T20:40:18.862Z,56.97
2018-02-20T20:42:47.414Z,61.57
2018-02-20T20:45:15.027Z,62.43
2018-02-20T20:47:42.703Z,59.50
2018-02-20T20:50:10.540Z,62.17
2018-02-20T20:52:38.262Z,59.00
2018-02-20T20:55:07.508Z,60.00
2018-02-20T20:57:35.078Z,60.60
2018-02-20T21:00:03.607Z,59.77
2018-02-20T21:02:31.912Z,62.10
2018-02-20T21:04:59.850Z,60.70
2018-02-20T21:07:27.419Z,61.57
2018-02-20T21:09:55.114Z,64.07
2018-02-20T21:12:24.452Z,58.27
2018-02-20T21:14:52.781Z,59.50
2018-02-20T21:17:20.824Z,64.20
2018-02-20T21:19:48.392Z,65.63
2018-02-20T21:22:16.816Z,63.37
2018-02-20T21:24:44.435Z,60.53
2018-02-20T21:27:12.628Z,63.40
2018-02-20T21:29:40.808Z,64.27
2018-02-20T21:32:09.358Z,63.03
2018-02-20T21:34:37.792Z,65.20
2018-02-20T21:37:07.753Z,63.07
2018-02-20T21:39:35.850Z,63.23
2018-02-20T21:42:04.037Z,64.93
2018-02-20T21:44:32.461Z,66.57
2018-02-20T21:47:00.474Z,66.50
2018-02-20T21:49:28.012Z,67.27
2018-02-20T21:51:56.191Z,71.40
2018-02-20T21:54:24.099Z,67.03
2018-02-20T21:56:52.660Z,67.57
2018-02-20T21:59:21.186Z,67.10
2018-02-20T22:01:49.880Z,69.50
2018-02-20T22:04:18.422Z,67.10
2018-02-20T22:06:46.785Z,69.30
2018-02-20T22:09:14.960Z,66.10
2018-02-20T22:11:43.072Z,67.50
2018-02-20T22:14:11.376Z,71.57
2018-02-20T22:16:38.931Z,73.17
2018-02-20T22:19:06.662Z,67.73
2018-02-20T22:21:35.594Z,70.00
2018-02-20T22:24:03.140Z,69.33
2018-02-20T22:26:32.418Z,71.23
2018-02-20T22:29:00.766Z,68.40
2018-02-20T22:31:28.426Z,72.80
2018-02-20T22:33:56.889Z,66.67
2018-02-20T22:36:25.405Z,66.53
2018-02-20T22:38:53.657Z,74.87
2018-02-20T22:41:21.203Z,73.40
2018-02-20T22:43:49.000Z,69.90
2018-02-20T22:46:17.311Z,74.57
2018-02-20T22:48:45.509Z,72.37
2018-02-20T22:51:13.069Z,68.80
2018-02-20T22:53:41.122Z,68.77
2018-02-20T22:56:08.967Z,69.20
2018-02-20T22:58:37.270Z,66.93
2018-02-20T23:01:04.845Z,68.37
2018-02-20T23:03:33.258Z,67.93
2018-02-20T23:06:01.312Z,67.40
2018-02-20T23:08:28.876Z,73.07
2018-02-20T23:10:57.543Z,66.37
2018-02-20T23:13:26.163Z,69.50
2018-02-20T23:15:53.840Z,70.53
2018-02-20T23:18:22.203Z,69.00
2018-02-20T23:20:50.193Z,69.77
2018-02-20T23:23:17.812Z,67.80
2018-02-20T23:25:47.165Z,72.00
2018-02-20T23:28:16.028Z,72.63
2018-02-20T23:30:43.807Z,75.00
2018-02-20T23:33:12.364Z,71.30
2018-02-20T23:35:40.168Z,70.80
2018-02-20T23:38:07.938Z,71.53
2018-02-20T23:40:36.027Z,70.30
2018-02-20T23:43:04.560Z,71.10
2018-02-20T23:45:32.288Z,71.20
2018-02-20T23:48:00.527Z,69.67
2018-02-20T23:50:28.272Z,74.77
2018-02-20T23:52:56.434Z,70.83
2018-02-20T23:55:24.120Z,71.73
2018-02-20T23:57:51.707Z,69.00
